sensor_id;sensor_type;location;lat;lon;timestamp;P1;durP1;ratioP1;P2;durP2;ratioP2
70455;SDS011;57916;51.996;5.180;2022-08-19T00:01:54;12.27;;;11.10;;
70455;SDS011;57916;51.996;5.180;2022-08-19T00:04:26;11.90;;;10.40;;
70455;SDS011;57916;51.996;5.180;2022-08-19T00:06:57;11.52;;;10.32;;
70455;SDS011;57916;51.996;5.180;2022-08-19T00:09:25;13.05;;;10.85;;
70455;SDS011;57916;51.996;5.180;2022-08-19T00:11:53;11.45;;;10.45;;
70455;SDS011;57916;51.996;5.180;2022-08-19T00:14:22;11.30;;;10.23;;
70455;SDS011;57916;51.996;5.180;2022-08-19T00:16:51;12.30;;;10.98;;
70455;SDS011;57916;51.996;5.180;2022-08-19T00:19:21;14.70;;;11.35;;
70455;SDS011;57916;51.996;5.180;2022-08-19T00:21:49;11.90;;;10.65;;
70455;SDS011;57916;51.996;5.180;2022-08-19T00:24:17;12.40;;;11.18;;
70455;SDS011;57916;51.996;5.180;2022-08-19T00:26:44;13.23;;;11.45;;
70455;SDS011;57916;51.996;5.180;2022-08-19T00:29:13;12.23;;;11.13;;
70455;SDS011;57916;51.996;5.180;2022-08-19T00:31:41;12.00;;;10.80;;
70455;SDS011;57916;51.996;5.180;2022-08-19T00:34:09;14.27;;;11.18;;
70455;SDS011;57916;51.996;5.180;2022-08-19T00:36:38;12.27;;;11.10;;
70455;SDS011;57916;51.996;5.180;2022-08-19T00:39:06;12.77;;;11.07;;
70455;SDS011;57916;51.996;5.180;2022-08-19T00:41:33;13.88;;;11.10;;
70455;SDS011;57916;51.996;5.180;2022-08-19T00:44:04;11.38;;;10.05;;
70455;SDS011;57916;51.996;5.180;2022-08-19T00:46:37;10.45;;;9.45;;
70455;SDS011;57916;51.996;5.180;2022-08-19T00:49:27;9.00;;;8.10;;
70455;SDS011;57916;51.996;5.180;2022-08-19T00:52:21;8.18;;;7.57;;
70455;SDS011;57916;51.996;5.180;2022-08-19T00:54:48;8.20;;;7.47;;
70455;SDS011;57916;51.996;5.180;2022-08-19T00:57:18;8.17;;;7.47;;
70455;SDS011;57916;51.996;5.180;2022-08-19T00:59:53;9.60;;;8.68;;
70455;SDS011;57916;51.996;5.180;2022-08-19T01:02:28;9.63;;;8.82;;
70455;SDS011;57916;51.996;5.180;2022-08-19T01:04:56;9.03;;;8.23;;
70455;SDS011;57916;51.996;5.180;2022-08-19T01:07:23;8.63;;;7.72;;
70455;SDS011;57916;51.996;5.180;2022-08-19T01:09:51;7.40;;;6.72;;
70455;SDS011;57916;51.996;5.180;2022-08-19T01:12:18;7.65;;;6.90;;
70455;SDS011;57916;51.996;5.180;2022-08-19T01:14:45;7.40;;;6.80;;
70455;SDS011;57916;51.996;5.180;2022-08-19T01:17:13;7.97;;;7.37;;
70455;SDS011;57916;51.996;5.180;2022-08-19T01:19:42;7.53;;;6.93;;
70455;SDS011;57916;51.996;5.180;2022-08-19T01:22:25;9.93;;;7.97;;
70455;SDS011;57916;51.996;5.180;2022-08-19T01:25:12;7.43;;;6.82;;
70455;SDS011;57916;51.996;5.180;2022-08-19T01:27:43;8.55;;;6.97;;
70455;SDS011;57916;51.996;5.180;2022-08-19T01:30:13;11.23;;;10.13;;
70455;SDS011;57916;51.996;5.180;2022-08-19T01:32:50;12.00;;;10.90;;
70455;SDS011;57916;51.996;5.180;2022-08-19T01:35:19;11.63;;;10.43;;
70455;SDS011;57916;51.996;5.180;2022-08-19T01:37:48;10.23;;;8.95;;
70455;SDS011;57916;51.996;5.180;2022-08-19T01:40:18;14.10;;;11.50;;
70455;SDS011;57916;51.996;5.180;2022-08-19T01:42:47;15.38;;;12.50;;
70455;SDS011;57916;51.996;5.180;2022-08-19T01:45:17;16.53;;;13.63;;
70455;SDS011;57916;51.996;5.180;2022-08-19T01:47:45;15.63;;;11.93;;
70455;SDS011;57916;51.996;5.180;2022-08-19T01:50:28;17.92;;;12.40;;
70455;SDS011;57916;51.996;5.180;2022-08-19T01:53:00;14.48;;;12.05;;
70455;SDS011;57916;51.996;5.180;2022-08-19T01:55:34;14.75;;;13.10;;
70455;SDS011;57916;51.996;5.180;2022-08-19T01:58:07;16.23;;;13.38;;
70455;SDS011;57916;51.996;5.180;2022-08-19T02:00:41;13.27;;;11.00;;
70455;SDS011;57916;51.996;5.180;2022-08-19T02:03:09;14.18;;;11.88;;
70455;SDS011;57916;51.996;5.180;2022-08-19T02:05:37;13.40;;;12.00;;
70455;SDS011;57916;51.996;5.180;2022-08-19T02:08:06;14.75;;;12.50;;
70455;SDS011;57916;51.996;5.180;2022-08-19T02:10:33;15.15;;;11.82;;
70455;SDS011;57916;51.996;5.180;2022-08-19T02:13:06;13.10;;;11.03;;
70455;SDS011;57916;51.996;5.180;2022-08-19T02:15:33;14.88;;;11.00;;
70455;SDS011;57916;51.996;5.180;2022-08-19T02:18:00;13.23;;;10.73;;
70455;SDS011;57916;51.996;5.180;2022-08-19T02:20:26;13.82;;;11.45;;
70455;SDS011;57916;51.996;5.180;2022-08-19T02:22:53;20.23;;;13.25;;
70455;SDS011;57916;51.996;5.180;2022-08-19T02:25:20;21.58;;;14.38;;
70455;SDS011;57916;51.996;5.180;2022-08-19T02:27:47;16.80;;;12.77;;
70455;SDS011;57916;51.996;5.180;2022-08-19T02:30:16;16.07;;;13.40;;
70455;SDS011;57916;51.996;5.180;2022-08-19T02:32:45;22.35;;;14.73;;
70455;SDS011;57916;51.996;5.180;2022-08-19T02:35:13;17.83;;;14.52;;
70455;SDS011;57916;51.996;5.180;2022-08-19T02:37:41;12.55;;;10.73;;
70455;SDS011;57916;51.996;5.180;2022-08-19T02:40:28;14.45;;;10.95;;
70455;SDS011;57916;51.996;5.180;2022-08-19T02:42:58;18.20;;;14.35;;
70455;SDS011;57916;51.996;5.180;2022-08-19T02:45:25;18.17;;;14.02;;
70455;SDS011;57916;51.996;5.180;2022-08-19T02:47:52;18.38;;;13.93;;
70455;SDS011;57916;51.996;5.180;2022-08-19T02:50:19;19.02;;;14.25;;
70455;SDS011;57916;51.996;5.180;2022-08-19T02:52:46;23.67;;;15.38;;
70455;SDS011;57916;51.996;5.180;2022-08-19T02:55:13;21.38;;;15.70;;
70455;SDS011;57916;51.996;5.180;2022-08-19T02:57:40;23.10;;;16.10;;
70455;SDS011;57916;51.996;5.180;2022-08-19T03:00:08;21.55;;;15.27;;
70455;SDS011;57916;51.996;5.180;2022-08-19T03:02:39;22.98;;;16.58;;
70455;SDS011;57916;51.996;5.180;2022-08-19T03:05:07;24.55;;;16.60;;
70455;SDS011;57916;51.996;5.180;2022-08-19T03:07:36;21.65;;;15.40;;
70455;SDS011;57916;51.996;5.180;2022-08-19T03:10:03;24.35;;;16.52;;
70455;SDS011;57916;51.996;5.180;2022-08-19T03:12:31;26.70;;;17.33;;
70455;SDS011;57916;51.996;5.180;2022-08-19T03:15:03;28.00;;;17.58;;
70455;SDS011;57916;51.996;5.180;2022-08-19T03:17:34;26.27;;;18.20;;
70455;SDS011;57916;51.996;5.180;2022-08-19T03:20:02;31.58;;;19.10;;
70455;SDS011;57916;51.996;5.180;2022-08-19T03:22:30;27.20;;;17.48;;
70455;SDS011;57916;51.996;5.180;2022-08-19T03:24:57;26.57;;;17.80;;
70455;SDS011;57916;51.996;5.180;2022-08-19T03:27:25;25.45;;;18.30;;
70455;SDS011;57916;51.996;5.180;2022-08-19T03:29:59;24.20;;;17.77;;
70455;SDS011;57916;51.996;5.180;2022-08-19T03:32:26;24.00;;;16.80;;
70455;SDS011;57916;51.996;5.180;2022-08-19T03:34:58;21.98;;;15.77;;
70455;SDS011;57916;51.996;5.180;2022-08-19T03:37:26;16.48;;;13.73;;
70455;SDS011;57916;51.996;5.180;2022-08-19T03:39:52;15.27;;;12.45;;
70455;SDS011;57916;51.996;5.180;2022-08-19T03:42:19;19.77;;;14.82;;
70455;SDS011;57916;51.996;5.180;2022-08-19T03:45:06;19.97;;;15.47;;
70455;SDS011;57916;51.996;5.180;2022-08-19T03:47:34;25.10;;;16.67;;
70455;SDS011;57916;51.996;5.180;2022-08-19T03:50:01;28.20;;;18.63;;
70455;SDS011;57916;51.996;5.180;2022-08-19T03:52:28;29.17;;;19.77;;
70455;SDS011;57916;51.996;5.180;2022-08-19T03:54:55;30.33;;;20.10;;
70455;SDS011;57916;51.996;5.180;2022-08-19T03:57:22;32.63;;;21.15;;
70455;SDS011;57916;51.996;5.180;2022-08-19T03:59:57;35.70;;;21.83;;
70455;SDS011;57916;51.996;5.180;2022-08-19T04:02:39;38.38;;;22.45;;
70455;SDS011;57916;51.996;5.180;2022-08-19T04:05:23;29.73;;;20.40;;
70455;SDS011;57916;51.996;5.180;2022-08-19T04:07:54;31.87;;;20.93;;
70455;SDS011;57916;51.996;5.180;2022-08-19T04:10:25;24.87;;;18.17;;
70455;SDS011;57916;51.996;5.180;2022-08-19T04:12:51;24.33;;;17.65;;
70455;SDS011;57916;51.996;5.180;2022-08-19T04:15:19;19.35;;;15.18;;
70455;SDS011;57916;51.996;5.180;2022-08-19T04:17:47;19.75;;;15.60;;
70455;SDS011;57916;51.996;5.180;2022-08-19T04:20:13;24.90;;;18.25;;
70455;SDS011;57916;51.996;5.180;2022-08-19T04:22:40;30.63;;;21.08;;
70455;SDS011;57916;51.996;5.180;2022-08-19T04:25:07;29.50;;;20.20;;
70455;SDS011;57916;51.996;5.180;2022-08-19T04:27:35;27.23;;;18.35;;
70455;SDS011;57916;51.996;5.180;2022-08-19T04:30:02;23.40;;;16.83;;
70455;SDS011;57916;51.996;5.180;2022-08-19T04:32:30;24.30;;;16.25;;
70455;SDS011;57916;51.996;5.180;2022-08-19T04:34:58;26.73;;;15.77;;
70455;SDS011;57916;51.996;5.180;2022-08-19T04:37:42;22.38;;;15.07;;
70455;SDS011;57916;51.996;5.180;2022-08-19T04:40:10;22.08;;;14.77;;
70455;SDS011;57916;51.996;5.180;2022-08-19T04:42:55;20.20;;;14.52;;
70455;SDS011;57916;51.996;5.180;2022-08-19T04:45:22;20.90;;;13.77;;
70455;SDS011;57916;51.996;5.180;2022-08-19T04:47:49;17.10;;;13.50;;
70455;SDS011;57916;51.996;5.180;2022-08-19T04:50:42;22.35;;;15.93;;
70455;SDS011;57916;51.996;5.180;2022-08-19T04:53:10;26.92;;;18.55;;
70455;SDS011;57916;51.996;5.180;2022-08-19T04:55:40;32.05;;;17.95;;
70455;SDS011;57916;51.996;5.180;2022-08-19T04:58:08;38.83;;;17.48;;
70455;SDS011;57916;51.996;5.180;2022-08-19T05:00:37;27.27;;;15.55;;
70455;SDS011;57916;51.996;5.180;2022-08-19T05:03:06;169.02;;;15.70;;
70455;SDS011;57916;51.996;5.180;2022-08-19T05:05:33;397.57;;;18.87;;
70455;SDS011;57916;51.996;5.180;2022-08-19T05:08:11;22.33;;;16.08;;
70455;SDS011;57916;51.996;5.180;2022-08-19T05:10:40;23.73;;;16.42;;
70455;SDS011;57916;51.996;5.180;2022-08-19T05:13:07;28.23;;;18.88;;
70455;SDS011;57916;51.996;5.180;2022-08-19T05:15:36;30.42;;;19.35;;
70455;SDS011;57916;51.996;5.180;2022-08-19T05:18:03;28.20;;;19.98;;
70455;SDS011;57916;51.996;5.180;2022-08-19T05:20:48;26.13;;;16.55;;
70455;SDS011;57916;51.996;5.180;2022-08-19T05:23:33;22.65;;;16.20;;
70455;SDS011;57916;51.996;5.180;2022-08-19T05:26:00;22.15;;;15.68;;
70455;SDS011;57916;51.996;5.180;2022-08-19T05:28:27;25.25;;;16.27;;
70455;SDS011;57916;51.996;5.180;2022-08-19T05:30:56;24.73;;;17.50;;
70455;SDS011;57916;51.996;5.180;2022-08-19T05:33:23;29.95;;;18.98;;
70455;SDS011;57916;51.996;5.180;2022-08-19T05:35:50;34.17;;;22.23;;
70455;SDS011;57916;51.996;5.180;2022-08-19T05:38:18;37.85;;;21.42;;
70455;SDS011;57916;51.996;5.180;2022-08-19T05:40:45;39.75;;;22.02;;
70455;SDS011;57916;51.996;5.180;2022-08-19T05:43:15;40.15;;;23.25;;
70455;SDS011;57916;51.996;5.180;2022-08-19T05:45:42;41.53;;;24.95;;
70455;SDS011;57916;51.996;5.180;2022-08-19T05:48:10;41.80;;;24.42;;
70455;SDS011;57916;51.996;5.180;2022-08-19T05:50:38;51.15;;;27.92;;
70455;SDS011;57916;51.996;5.180;2022-08-19T05:53:07;54.60;;;29.90;;
70455;SDS011;57916;51.996;5.180;2022-08-19T05:55:35;60.47;;;31.13;;
70455;SDS011;57916;51.996;5.180;2022-08-19T05:58:04;60.20;;;31.75;;
70455;SDS011;57916;51.996;5.180;2022-08-19T06:00:34;56.90;;;30.83;;
70455;SDS011;57916;51.996;5.180;2022-08-19T06:03:02;57.95;;;31.45;;
70455;SDS011;57916;51.996;5.180;2022-08-19T06:05:38;61.05;;;32.85;;
70455;SDS011;57916;51.996;5.180;2022-08-19T06:08:17;63.35;;;33.40;;
70455;SDS011;57916;51.996;5.180;2022-08-19T06:10:44;71.45;;;34.97;;
70455;SDS011;57916;51.996;5.180;2022-08-19T06:13:11;70.82;;;35.53;;
70455;SDS011;57916;51.996;5.180;2022-08-19T06:15:38;70.78;;;35.97;;
70455;SDS011;57916;51.996;5.180;2022-08-19T06:18:05;68.95;;;34.28;;
70455;SDS011;57916;51.996;5.180;2022-08-19T06:20:32;69.53;;;34.50;;
70455;SDS011;57916;51.996;5.180;2022-08-19T06:23:19;73.65;;;35.60;;
70455;SDS011;57916;51.996;5.180;2022-08-19T06:25:49;66.78;;;32.08;;
70455;SDS011;57916;51.996;5.180;2022-08-19T06:28:16;69.38;;;32.22;;
70455;SDS011;57916;51.996;5.180;2022-08-19T06:30:43;66.18;;;32.15;;
70455;SDS011;57916;51.996;5.180;2022-08-19T06:33:11;68.30;;;31.92;;
70455;SDS011;57916;51.996;5.180;2022-08-19T06:35:38;64.53;;;31.10;;
70455;SDS011;57916;51.996;5.180;2022-08-19T06:38:06;65.82;;;32.65;;
70455;SDS011;57916;51.996;5.180;2022-08-19T06:40:33;68.85;;;33.28;;
70455;SDS011;57916;51.996;5.180;2022-08-19T06:43:01;67.97;;;33.83;;
70455;SDS011;57916;51.996;5.180;2022-08-19T06:45:31;73.90;;;35.63;;
70455;SDS011;57916;51.996;5.180;2022-08-19T06:48:01;64.23;;;31.70;;
70455;SDS011;57916;51.996;5.180;2022-08-19T06:50:28;56.72;;;29.45;;
70455;SDS011;57916;51.996;5.180;2022-08-19T06:52:55;60.70;;;28.75;;
70455;SDS011;57916;51.996;5.180;2022-08-19T06:55:26;54.55;;;27.15;;
70455;SDS011;57916;51.996;5.180;2022-08-19T06:58:01;57.83;;;27.58;;
70455;SDS011;57916;51.996;5.180;2022-08-19T07:00:29;59.25;;;28.77;;
70455;SDS011;57916;51.996;5.180;2022-08-19T07:03:01;54.83;;;28.80;;
70455;SDS011;57916;51.996;5.180;2022-08-19T07:05:41;61.15;;;28.80;;
70455;SDS011;57916;51.996;5.180;2022-08-19T07:08:12;64.55;;;30.20;;
70455;SDS011;57916;51.996;5.180;2022-08-19T07:10:42;59.83;;;29.20;;
70455;SDS011;57916;51.996;5.180;2022-08-19T07:13:09;57.35;;;28.08;;
70455;SDS011;57916;51.996;5.180;2022-08-19T07:15:37;52.35;;;26.90;;
70455;SDS011;57916;51.996;5.180;2022-08-19T07:18:05;48.83;;;26.42;;
70455;SDS011;57916;51.996;5.180;2022-08-19T07:20:37;48.55;;;26.05;;
70455;SDS011;57916;51.996;5.180;2022-08-19T07:23:07;47.00;;;24.90;;
70455;SDS011;57916;51.996;5.180;2022-08-19T07:25:37;49.25;;;25.63;;
70455;SDS011;57916;51.996;5.180;2022-08-19T07:28:06;43.67;;;23.40;;
70455;SDS011;57916;51.996;5.180;2022-08-19T07:30:50;45.07;;;23.63;;
70455;SDS011;57916;51.996;5.180;2022-08-19T07:33:18;43.90;;;23.95;;
70455;SDS011;57916;51.996;5.180;2022-08-19T07:35:45;41.78;;;23.27;;
70455;SDS011;57916;51.996;5.180;2022-08-19T07:38:12;44.38;;;23.08;;
70455;SDS011;57916;51.996;5.180;2022-08-19T07:40:41;37.08;;;20.88;;
70455;SDS011;57916;51.996;5.180;2022-08-19T07:43:09;33.42;;;19.35;;
70455;SDS011;57916;51.996;5.180;2022-08-19T07:45:42;33.63;;;18.13;;
70455;SDS011;57916;51.996;5.180;2022-08-19T07:48:09;43.63;;;19.52;;
70455;SDS011;57916;51.996;5.180;2022-08-19T07:50:36;41.45;;;19.98;;
70455;SDS011;57916;51.996;5.180;2022-08-19T07:53:03;40.65;;;20.75;;
70455;SDS011;57916;51.996;5.180;2022-08-19T07:55:30;45.72;;;21.00;;
70455;SDS011;57916;51.996;5.180;2022-08-19T07:58:06;42.60;;;20.88;;
70455;SDS011;57916;51.996;5.180;2022-08-19T08:00:33;41.33;;;21.10;;
70455;SDS011;57916;51.996;5.180;2022-08-19T08:03:01;37.10;;;20.48;;
70455;SDS011;57916;51.996;5.180;2022-08-19T08:05:28;39.73;;;20.87;;
70455;SDS011;57916;51.996;5.180;2022-08-19T08:08:13;38.50;;;20.97;;
70455;SDS011;57916;51.996;5.180;2022-08-19T08:10:59;40.28;;;21.10;;
70455;SDS011;57916;51.996;5.180;2022-08-19T08:13:27;38.15;;;21.17;;
70455;SDS011;57916;51.996;5.180;2022-08-19T08:15:54;41.67;;;20.90;;
70455;SDS011;57916;51.996;5.180;2022-08-19T08:18:25;41.67;;;22.55;;
70455;SDS011;57916;51.996;5.180;2022-08-19T08:20:55;48.23;;;23.07;;
70455;SDS011;57916;51.996;5.180;2022-08-19T08:23:23;45.08;;;22.90;;
70455;SDS011;57916;51.996;5.180;2022-08-19T08:25:54;41.83;;;22.87;;
70455;SDS011;57916;51.996;5.180;2022-08-19T08:28:23;37.75;;;19.60;;
70455;SDS011;57916;51.996;5.180;2022-08-19T08:30:55;31.45;;;16.55;;
70455;SDS011;57916;51.996;5.180;2022-08-19T08:33:24;34.30;;;16.10;;
70455;SDS011;57916;51.996;5.180;2022-08-19T08:35:58;29.27;;;16.83;;
70455;SDS011;57916;51.996;5.180;2022-08-19T08:38:25;28.48;;;17.00;;
70455;SDS011;57916;51.996;5.180;2022-08-19T08:40:57;27.63;;;16.58;;
70455;SDS011;57916;51.996;5.180;2022-08-19T08:43:33;25.55;;;16.35;;
70455;SDS011;57916;51.996;5.180;2022-08-19T08:46:17;27.55;;;14.90;;
70455;SDS011;57916;51.996;5.180;2022-08-19T08:51:48;25.50;;;13.75;;
70455;SDS011;57916;51.996;5.180;2022-08-19T08:54:27;23.75;;;13.98;;
70455;SDS011;57916;51.996;5.180;2022-08-19T08:57:09;22.27;;;13.00;;
70455;SDS011;57916;51.996;5.180;2022-08-19T08:59:40;23.02;;;13.45;;
70455;SDS011;57916;51.996;5.180;2022-08-19T09:02:09;25.63;;;14.10;;
70455;SDS011;57916;51.996;5.180;2022-08-19T09:04:36;25.13;;;14.40;;
70455;SDS011;57916;51.996;5.180;2022-08-19T09:09:56;26.88;;;16.25;;
70455;SDS011;57916;51.996;5.180;2022-08-19T09:15:32;35.72;;;18.48;;
70455;SDS011;57916;51.996;5.180;2022-08-19T09:18:04;33.47;;;18.52;;
70455;SDS011;57916;51.996;5.180;2022-08-19T09:20:32;33.00;;;19.33;;
70455;SDS011;57916;51.996;5.180;2022-08-19T09:22:59;38.10;;;19.38;;
70455;SDS011;57916;51.996;5.180;2022-08-19T09:25:26;43.70;;;20.85;;
70455;SDS011;57916;51.996;5.180;2022-08-19T09:27:55;39.80;;;21.25;;
70455;SDS011;57916;51.996;5.180;2022-08-19T09:30:32;40.17;;;22.37;;
70455;SDS011;57916;51.996;5.180;2022-08-19T09:33:05;37.88;;;22.60;;
70455;SDS011;57916;51.996;5.180;2022-08-19T09:35:33;39.63;;;22.90;;
70455;SDS011;57916;51.996;5.180;2022-08-19T09:38:19;51.88;;;23.80;;
70455;SDS011;57916;51.996;5.180;2022-08-19T09:40:47;41.03;;;23.42;;
70455;SDS011;57916;51.996;5.180;2022-08-19T09:43:16;39.80;;;22.08;;
70455;SDS011;57916;51.996;5.180;2022-08-19T09:45:59;44.65;;;23.75;;
70455;SDS011;57916;51.996;5.180;2022-08-19T09:48:27;42.53;;;23.23;;
70455;SDS011;57916;51.996;5.180;2022-08-19T09:50:54;42.92;;;23.98;;
70455;SDS011;57916;51.996;5.180;2022-08-19T09:53:21;45.22;;;24.45;;
70455;SDS011;57916;51.996;5.180;2022-08-19T09:55:51;51.30;;;24.08;;
70455;SDS011;57916;51.996;5.180;2022-08-19T09:58:18;46.60;;;23.98;;
70455;SDS011;57916;51.996;5.180;2022-08-19T10:00:51;47.92;;;24.83;;
70455;SDS011;57916;51.996;5.180;2022-08-19T10:03:20;44.33;;;25.27;;
70455;SDS011;57916;51.996;5.180;2022-08-19T10:05:50;50.72;;;25.08;;
70455;SDS011;57916;51.996;5.180;2022-08-19T10:08:25;53.25;;;25.25;;
70455;SDS011;57916;51.996;5.180;2022-08-19T10:10:54;51.10;;;26.23;;
70455;SDS011;57916;51.996;5.180;2022-08-19T10:13:26;44.50;;;23.63;;
70455;SDS011;57916;51.996;5.180;2022-08-19T10:15:56;48.30;;;22.60;;
70455;SDS011;57916;51.996;5.180;2022-08-19T10:18:29;45.53;;;21.90;;
70455;SDS011;57916;51.996;5.180;2022-08-19T10:21:06;43.28;;;20.52;;
70455;SDS011;57916;51.996;5.180;2022-08-19T10:23:37;36.63;;;20.35;;
70455;SDS011;57916;51.996;5.180;2022-08-19T10:26:06;40.17;;;20.63;;
70455;SDS011;57916;51.996;5.180;2022-08-19T10:28:34;37.60;;;19.23;;
70455;SDS011;57916;51.996;5.180;2022-08-19T10:31:08;38.25;;;19.98;;
70455;SDS011;57916;51.996;5.180;2022-08-19T10:33:38;37.47;;;19.58;;
70455;SDS011;57916;51.996;5.180;2022-08-19T10:36:20;40.35;;;19.48;;
70455;SDS011;57916;51.996;5.180;2022-08-19T10:38:49;32.80;;;19.45;;
70455;SDS011;57916;51.996;5.180;2022-08-19T10:41:23;35.80;;;19.57;;
70455;SDS011;57916;51.996;5.180;2022-08-19T10:44:02;34.97;;;20.15;;
70455;SDS011;57916;51.996;5.180;2022-08-19T10:46:31;36.28;;;20.38;;
70455;SDS011;57916;51.996;5.180;2022-08-19T10:49:02;42.35;;;21.13;;
70455;SDS011;57916;51.996;5.180;2022-08-19T10:51:31;34.75;;;19.73;;
70455;SDS011;57916;51.996;5.180;2022-08-19T10:54:17;37.73;;;20.80;;
70455;SDS011;57916;51.996;5.180;2022-08-19T10:56:57;42.75;;;21.17;;
70455;SDS011;57916;51.996;5.180;2022-08-19T10:59:26;35.25;;;20.13;;
70455;SDS011;57916;51.996;5.180;2022-08-19T11:02:01;37.10;;;20.52;;
70455;SDS011;57916;51.996;5.180;2022-08-19T11:04:30;34.83;;;19.88;;
70455;SDS011;57916;51.996;5.180;2022-08-19T11:06:58;37.67;;;21.55;;
70455;SDS011;57916;51.996;5.180;2022-08-19T11:09:25;35.55;;;21.63;;
70455;SDS011;57916;51.996;5.180;2022-08-19T11:11:59;33.05;;;21.15;;
70455;SDS011;57916;51.996;5.180;2022-08-19T11:14:30;34.78;;;21.70;;
70455;SDS011;57916;51.996;5.180;2022-08-19T11:16:59;32.23;;;20.47;;
70455;SDS011;57916;51.996;5.180;2022-08-19T11:19:27;34.30;;;20.73;;
70455;SDS011;57916;51.996;5.180;2022-08-19T11:21:54;28.55;;;18.60;;
70455;SDS011;57916;51.996;5.180;2022-08-19T11:24:25;27.80;;;17.45;;
70455;SDS011;57916;51.996;5.180;2022-08-19T11:26:54;29.17;;;17.83;;
70455;SDS011;57916;51.996;5.180;2022-08-19T11:29:26;25.85;;;16.73;;
70455;SDS011;57916;51.996;5.180;2022-08-19T11:31:54;34.75;;;17.52;;
70455;SDS011;57916;51.996;5.180;2022-08-19T11:34:21;32.70;;;16.55;;
70455;SDS011;57916;51.996;5.180;2022-08-19T11:36:53;29.17;;;17.38;;
70455;SDS011;57916;51.996;5.180;2022-08-19T11:39:24;29.65;;;17.30;;
70455;SDS011;57916;51.996;5.180;2022-08-19T11:41:53;27.02;;;16.15;;
70455;SDS011;57916;51.996;5.180;2022-08-19T11:44:20;28.37;;;16.77;;
70455;SDS011;57916;51.996;5.180;2022-08-19T11:46:47;23.88;;;16.23;;
70455;SDS011;57916;51.996;5.180;2022-08-19T11:49:15;20.17;;;14.40;;
70455;SDS011;57916;51.996;5.180;2022-08-19T11:51:45;24.98;;;14.50;;
70455;SDS011;57916;51.996;5.180;2022-08-19T11:54:14;26.00;;;15.55;;
70455;SDS011;57916;51.996;5.180;2022-08-19T11:56:42;20.13;;;14.85;;
70455;SDS011;57916;51.996;5.180;2022-08-19T11:59:11;22.65;;;15.07;;
70455;SDS011;57916;51.996;5.180;2022-08-19T12:01:40;27.65;;;16.48;;
70455;SDS011;57916;51.996;5.180;2022-08-19T12:04:09;24.83;;;16.58;;
70455;SDS011;57916;51.996;5.180;2022-08-19T12:06:37;26.08;;;15.25;;
70455;SDS011;57916;51.996;5.180;2022-08-19T12:09:07;24.27;;;14.10;;
70455;SDS011;57916;51.996;5.180;2022-08-19T12:11:38;23.35;;;14.68;;
70455;SDS011;57916;51.996;5.180;2022-08-19T12:14:05;22.48;;;14.40;;
70455;SDS011;57916;51.996;5.180;2022-08-19T12:16:40;21.42;;;13.55;;
70455;SDS011;57916;51.996;5.180;2022-08-19T12:19:14;21.95;;;13.30;;
70455;SDS011;57916;51.996;5.180;2022-08-19T12:21:47;22.23;;;12.50;;
70455;SDS011;57916;51.996;5.180;2022-08-19T12:24:15;20.05;;;12.52;;
70455;SDS011;57916;51.996;5.180;2022-08-19T12:26:42;19.45;;;11.52;;
70455;SDS011;57916;51.996;5.180;2022-08-19T12:29:18;20.95;;;12.38;;
70455;SDS011;57916;51.996;5.180;2022-08-19T12:31:49;32.43;;;12.33;;
70455;SDS011;57916;51.996;5.180;2022-08-19T12:34:17;18.87;;;12.00;;
70455;SDS011;57916;51.996;5.180;2022-08-19T12:36:45;29.05;;;11.82;;
70455;SDS011;57916;51.996;5.180;2022-08-19T12:39:15;17.17;;;10.38;;
70455;SDS011;57916;51.996;5.180;2022-08-19T12:41:42;18.73;;;10.70;;
70455;SDS011;57916;51.996;5.180;2022-08-19T12:44:20;18.85;;;10.60;;
70455;SDS011;57916;51.996;5.180;2022-08-19T12:46:55;17.40;;;10.47;;
70455;SDS011;57916;51.996;5.180;2022-08-19T12:49:22;13.85;;;9.73;;
70455;SDS011;57916;51.996;5.180;2022-08-19T12:52:11;18.20;;;9.77;;
70455;SDS011;57916;51.996;5.180;2022-08-19T12:54:41;15.30;;;8.70;;
70455;SDS011;57916;51.996;5.180;2022-08-19T12:57:12;8.77;;;6.90;;
70455;SDS011;57916;51.996;5.180;2022-08-19T12:59:39;10.25;;;6.15;;
70455;SDS011;57916;51.996;5.180;2022-08-19T13:02:07;8.70;;;5.90;;
70455;SDS011;57916;51.996;5.180;2022-08-19T13:04:35;7.95;;;5.10;;
70455;SDS011;57916;51.996;5.180;2022-08-19T13:07:04;7.80;;;5.50;;
70455;SDS011;57916;51.996;5.180;2022-08-19T13:09:39;11.18;;;6.80;;
70455;SDS011;57916;51.996;5.180;2022-08-19T13:12:08;13.40;;;7.60;;
70455;SDS011;57916;51.996;5.180;2022-08-19T13:14:39;11.55;;;8.05;;
70455;SDS011;57916;51.996;5.180;2022-08-19T13:17:07;25.70;;;9.85;;
70455;SDS011;57916;51.996;5.180;2022-08-19T13:19:36;12.35;;;8.25;;
70455;SDS011;57916;51.996;5.180;2022-08-19T13:22:03;10.20;;;6.30;;
70455;SDS011;57916;51.996;5.180;2022-08-19T13:24:40;6.10;;;5.53;;
70455;SDS011;57916;51.996;5.180;2022-08-19T13:27:12;8.40;;;5.80;;
70455;SDS011;57916;51.996;5.180;2022-08-19T13:29:40;31.15;;;6.60;;
70455;SDS011;57916;51.996;5.180;2022-08-19T13:32:26;14.68;;;5.85;;
70455;SDS011;57916;51.996;5.180;2022-08-19T13:35:14;9.23;;;6.82;;
70455;SDS011;57916;51.996;5.180;2022-08-19T13:37:43;12.18;;;7.05;;
70455;SDS011;57916;51.996;5.180;2022-08-19T13:40:16;11.82;;;7.95;;
70455;SDS011;57916;51.996;5.180;2022-08-19T13:42:46;25.17;;;8.35;;
70455;SDS011;57916;51.996;5.180;2022-08-19T13:45:16;25.98;;;13.02;;
70455;SDS011;57916;51.996;5.180;2022-08-19T13:47:46;17.25;;;13.10;;
70455;SDS011;57916;51.996;5.180;2022-08-19T13:50:15;12.98;;;11.65;;
70455;SDS011;57916;51.996;5.180;2022-08-19T13:52:46;11.45;;;10.43;;
70455;SDS011;57916;51.996;5.180;2022-08-19T13:55:14;11.77;;;10.67;;
70455;SDS011;57916;51.996;5.180;2022-08-19T13:57:51;12.93;;;11.60;;
70455;SDS011;57916;51.996;5.180;2022-08-19T14:00:20;14.68;;;13.27;;
70455;SDS011;57916;51.996;5.180;2022-08-19T14:02:50;13.97;;;12.93;;
70455;SDS011;57916;51.996;5.180;2022-08-19T14:05:18;9.18;;;8.00;;
70455;SDS011;57916;51.996;5.180;2022-08-19T14:07:47;8.57;;;7.88;;
70455;SDS011;57916;51.996;5.180;2022-08-19T14:10:15;9.50;;;7.60;;
70455;SDS011;57916;51.996;5.180;2022-08-19T14:12:42;7.70;;;7.10;;
70455;SDS011;57916;51.996;5.180;2022-08-19T14:15:10;7.00;;;6.53;;
70455;SDS011;57916;51.996;5.180;2022-08-19T14:17:38;6.75;;;6.25;;
70455;SDS011;57916;51.996;5.180;2022-08-19T14:20:07;7.50;;;6.85;;
70455;SDS011;57916;51.996;5.180;2022-08-19T14:22:43;6.80;;;6.38;;
70455;SDS011;57916;51.996;5.180;2022-08-19T14:25:13;7.00;;;6.50;;
70455;SDS011;57916;51.996;5.180;2022-08-19T14:27:43;7.13;;;6.63;;
70455;SDS011;57916;51.996;5.180;2022-08-19T14:30:11;7.03;;;6.63;;
70455;SDS011;57916;51.996;5.180;2022-08-19T14:32:41;7.47;;;7.00;;
70455;SDS011;57916;51.996;5.180;2022-08-19T14:35:10;8.90;;;8.07;;
70455;SDS011;57916;51.996;5.180;2022-08-19T14:37:38;8.45;;;7.85;;
70455;SDS011;57916;51.996;5.180;2022-08-19T14:40:12;8.73;;;7.80;;
70455;SDS011;57916;51.996;5.180;2022-08-19T14:42:40;6.93;;;6.43;;
70455;SDS011;57916;51.996;5.180;2022-08-19T14:45:08;7.10;;;6.50;;
70455;SDS011;57916;51.996;5.180;2022-08-19T14:47:36;6.53;;;6.00;;
70455;SDS011;57916;51.996;5.180;2022-08-19T14:50:06;6.97;;;6.47;;
70455;SDS011;57916;51.996;5.180;2022-08-19T14:52:46;8.38;;;7.68;;
70455;SDS011;57916;51.996;5.180;2022-08-19T14:55:15;8.02;;;7.43;;